Burket, Indiana
Current Conditions -  °F | °C
As of 6:15 PM on Saturday 25 Oct 2014 (Local Time) from KASW Reporting Station
Clear Clear  
Wind Chill: 64°   Ceiling: Unl
Heat Index: 64°   Visibility: 10mi
Dew Point: 36°   Wind: 13mph
Humidity: 34%   Direction: 300°WNW
Pressure: 29.88"   Gusts: 21mph
Location:  41.16°N, 85.97°W
Report Text: KASW 252215Z AUTO 30011G18KT 10SM CLR 18/02 A2988 RMK AO2
Loading
Personal Weather Stations






























Interactive Weather Map
Tropical Storm Tracking
New forecast layout! Learn more

10-Day Weather Forecast

Advertisements
Track Severe Weather on mobile